Time;durP1;ratioP1;P1;durP2;ratioP2;P2;SDS_P1;SDS_P2;PMS_P1;PMS_P2;Temp;Humidity;BMP_temperature;BMP_pressure;BME280_temperature;BME280_humidity;BME280_pressure;Samples;Min_cycle;Max_cycle;Signal;HPM_P1;HPM_P2
2022/10/16 00:00:43;;;;;;;33.97;18.87;;;15.10;99.90;;;;;;5007164;28;20215;-72
2022/10/16 00:03:11;;;;;;;33.87;19.30;;;15.10;99.90;;;;;;5022513;28;20234;-72
2022/10/16 00:05:43;;;;;;;34.20;18.90;;;15.10;99.90;;;;;;5007390;28;20207;-73
2022/10/16 00:08:12;;;;;;;31.40;17.20;;;15.10;99.90;;;;;;5006497;28;20209;-72
2022/10/16 00:10:40;;;;;;;30.13;18.10;;;15.20;99.90;;;;;;5006390;28;20203;-73
2022/10/16 00:13:08;;;;;;;31.60;18.63;;;15.20;99.90;;;;;;5004528;28;20243;-73
2022/10/16 00:15:36;;;;;;;32.73;18.67;;;15.20;99.90;;;;;;5004548;28;20231;-73
2022/10/16 00:18:06;;;;;;;33.03;19.13;;;15.20;99.90;;;;;;5007831;28;20294;-73
2022/10/16 00:20:36;;;;;;;28.77;16.87;;;15.10;99.90;;;;;;5011698;28;20350;-73
2022/10/16 00:23:04;;;;;;;31.17;17.80;;;15.10;99.90;;;;;;5010855;28;20218;-73
2022/10/16 00:25:33;;;;;;;30.30;18.07;;;15.20;99.90;;;;;;5011076;28;20325;-73
2022/10/16 00:28:01;;;;;;;30.70;18.37;;;15.20;99.90;;;;;;5009944;28;20207;-73
2022/10/16 00:30:28;;;;;;;32.10;17.60;;;15.20;99.90;;;;;;5011847;28;20198;-72
2022/10/16 00:32:56;;;;;;;32.47;18.07;;;15.20;99.90;;;;;;5010961;28;20209;-72
2022/10/16 00:35:24;;;;;;;37.23;19.43;;;15.20;99.90;;;;;;5009925;28;20203;-72
2022/10/16 00:37:51;;;;;;;28.70;18.10;;;15.70;99.90;;;;;;5010883;28;20278;-73
2022/10/16 00:40:19;;;;;;;32.27;18.57;;;15.20;99.90;;;;;;5009978;28;20591;-72
2022/10/16 00:42:46;;;;;;;36.83;18.73;;;15.10;99.90;;;;;;5009462;28;20227;-73
2022/10/16 00:45:13;;;;;;;31.20;17.33;;;15.10;99.90;;;;;;5007931;28;20219;-73
2022/10/16 00:47:44;;;;;;;25.13;15.50;;;15.10;99.90;;;;;;5010981;28;20207;-73
2022/10/16 00:50:17;;;;;;;19.80;12.33;;;15.10;99.90;;;;;;5011116;28;20207;-73
2022/10/16 00:52:48;;;;;;;23.97;14.77;;;15.20;99.90;;;;;;5009974;28;20314;-73
2022/10/16 00:55:17;;;;;;;19.07;12.07;;;15.20;99.90;;;;;;5010804;28;20179;-73
2022/10/16 00:57:45;;;;;;;25.57;14.87;;;15.20;99.90;;;;;;5009009;28;20208;-73
2022/10/16 01:00:14;;;;;;;26.10;15.00;;;15.20;99.90;;;;;;5010178;28;20234;-73
2022/10/16 01:02:41;;;;;;;26.07;15.60;;;15.20;99.90;;;;;;5007443;28;20239;-73
2022/10/16 01:05:09;;;;;;;27.53;17.07;;;15.20;99.90;;;;;;5010297;28;20210;-72
2022/10/16 01:07:49;;;;;;;27.50;15.97;;;15.20;99.90;;;;;;5008301;28;20199;-72
2022/10/16 01:10:27;;;;;;;28.17;15.97;;;15.20;99.90;;;;;;5010788;28;20235;-72
2022/10/16 01:13:00;;;;;;;25.67;15.83;;;15.20;99.90;;;;;;5009288;28;20216;-72
2022/10/16 01:15:35;;;;;;;26.33;16.33;;;15.20;99.90;;;;;;5008811;28;20246;-71
2022/10/16 01:18:08;;;;;;;29.50;17.33;;;14.90;99.90;;;;;;5009444;28;20298;-71
2022/10/16 01:20:40;;;;;;;30.03;16.87;;;15.30;99.90;;;;;;5011511;28;20678;-72
2022/10/16 01:23:17;;;;;;;30.73;15.93;;;15.30;99.90;;;;;;5008684;28;20218;-72
2022/10/16 01:26:01;;;;;;;17.87;11.30;;;15.30;99.90;;;;;;5009837;28;20254;-72
2022/10/16 01:28:37;;;;;;;21.47;12.50;;;15.30;99.90;;;;;;5010390;28;20195;-72
2022/10/16 01:31:05;;;;;;;18.23;11.67;;;15.30;99.90;;;;;;5009475;28;20694;-72
2022/10/16 01:33:39;;;;;;;20.40;12.10;;;15.40;99.90;;;;;;5010430;28;20197;-72
2022/10/16 01:36:12;;;;;;;27.07;14.70;;;15.40;99.90;;;;;;5010972;28;20267;-71
2022/10/16 01:38:41;;;;;;;27.20;14.43;;;15.40;99.90;;;;;;5007893;28;20196;-72
2022/10/16 01:41:12;;;;;;;21.67;13.37;;;15.40;99.90;;;;;;5009789;28;20671;-72
2022/10/16 01:43:44;;;;;;;23.97;13.47;;;15.40;99.90;;;;;;5008596;28;21064;-72
2022/10/16 01:46:13;;;;;;;21.80;13.53;;;15.40;99.90;;;;;;5009942;28;20568;-72
2022/10/16 01:48:41;;;;;;;23.77;14.27;;;15.40;99.90;;;;;;5010386;28;20594;-72
2022/10/16 01:51:13;;;;;;;23.30;14.83;;;15.50;99.90;;;;;;5009950;28;20278;-72
2022/10/16 01:53:41;;;;;;;23.87;14.40;;;15.50;99.90;;;;;;5009810;28;20191;-72
2022/10/16 01:56:13;;;;;;;23.07;13.77;;;15.50;99.90;;;;;;5010866;28;20804;-72
2022/10/16 01:58:46;;;;;;;21.67;13.90;;;15.50;99.90;;;;;;5009790;28;20223;-72
2022/10/16 02:01:17;;;;;;;23.63;14.07;;;15.50;99.90;;;;;;5009800;28;20454;-72
2022/10/16 02:03:46;;;;;;;25.03;14.73;;;15.50;99.90;;;;;;5007680;28;20322;-72
2022/10/16 02:06:14;;;;;;;22.33;14.17;;;15.50;99.90;;;;;;5009927;28;20566;-72
2022/10/16 02:08:43;;;;;;;26.73;15.90;;;15.50;99.90;;;;;;5008020;28;20261;-73
2022/10/16 02:11:11;;;;;;;26.87;15.83;;;15.50;99.90;;;;;;5010489;28;20294;-73
2022/10/16 02:13:45;;;;;;;26.63;15.40;;;15.50;99.90;;;;;;5006454;28;20207;-72
2022/10/16 02:16:13;;;;;;;26.60;15.47;;;15.50;99.90;;;;;;5007991;28;20187;-73
2022/10/16 02:18:41;;;;;;;28.17;16.87;;;15.50;99.90;;;;;;5009701;28;20196;-73
2022/10/16 02:21:14;;;;;;;29.50;17.13;;;15.50;99.90;;;;;;5013118;28;20195;-72
2022/10/16 02:23:52;;;;;;;35.37;21.77;;;15.50;99.90;;;;;;5015546;28;20287;-72
2022/10/16 02:26:31;;;;;;;29.30;17.03;;;15.50;99.90;;;;;;5011202;28;20203;-73
2022/10/16 02:29:04;;;;;;;27.50;17.13;;;15.50;99.90;;;;;;5013365;28;20207;-72
2022/10/16 02:31:36;;;;;;;19.57;13.53;;;15.50;99.90;;;;;;5009421;28;20195;-72
2022/10/16 02:34:05;;;;;;;24.47;14.30;;;15.60;99.90;;;;;;5009411;28;20197;-73
2022/10/16 02:36:35;;;;;;;21.00;13.40;;;15.60;99.90;;;;;;5006726;28;20207;-72
2022/10/16 02:39:04;;;;;;;17.27;11.83;;;15.60;99.90;;;;;;5008100;28;20254;-72
2022/10/16 02:41:32;;;;;;;20.43;12.13;;;15.60;99.90;;;;;;5006709;28;20201;-72
2022/10/16 02:44:00;;;;;;;21.03;12.80;;;15.60;99.90;;;;;;5005777;28;20210;-72
2022/10/16 02:46:27;;;;;;;18.30;11.53;;;15.60;99.90;;;;;;5008069;28;20204;-72
2022/10/16 02:48:55;;;;;;;13.10;8.57;;;15.60;99.90;;;;;;5007447;28;20547;-71
2022/10/16 02:51:22;;;;;;;10.47;7.43;;;15.70;99.90;;;;;;5007576;28;20211;-71
2022/10/16 02:53:49;;;;;;;10.93;7.63;;;15.70;99.90;;;;;;5006382;28;20622;-72
2022/10/16 02:56:16;;;;;;;12.30;8.13;;;15.70;99.90;;;;;;5008125;28;20200;-71
2022/10/16 02:58:43;;;;;;;9.87;7.63;;;15.70;99.90;;;;;;5006863;28;20205;-72
2022/10/16 03:01:14;;;;;;;16.50;10.43;;;15.70;99.90;;;;;;5002091;28;20282;-72
2022/10/16 03:03:41;;;;;;;16.63;10.27;;;15.70;99.90;;;;;;5022012;28;20318;-72
2022/10/16 03:06:08;;;;;;;19.97;11.93;;;15.70;99.90;;;;;;5010784;28;20567;-72
2022/10/16 03:08:35;;;;;;;18.47;11.07;;;15.70;99.90;;;;;;5006720;28;20233;-72
2022/10/16 03:11:05;;;;;;;16.00;11.10;;;15.70;99.90;;;;;;5007995;28;20560;-73
2022/10/16 03:13:32;;;;;;;19.17;11.80;;;15.70;99.90;;;;;;5005518;28;20575;-73
2022/10/16 03:16:00;;;;;;;17.40;11.13;;;15.70;99.90;;;;;;5008405;28;20521;-72
2022/10/16 03:18:28;;;;;;;15.93;10.77;;;15.70;99.90;;;;;;5006537;28;20200;-71
2022/10/16 03:20:55;;;;;;;18.00;11.10;;;15.70;99.90;;;;;;5008734;28;20197;-72
2022/10/16 03:23:22;;;;;;;16.37;10.60;;;15.70;99.90;;;;;;5006298;28;20188;-72
2022/10/16 03:25:49;;;;;;;15.07;10.20;;;15.70;99.90;;;;;;5006744;28;20221;-72
2022/10/16 03:28:17;;;;;;;15.13;9.87;;;15.70;99.90;;;;;;5008397;28;21017;-72
2022/10/16 03:30:44;;;;;;;15.13;10.37;;;15.70;99.90;;;;;;5009566;28;20686;-71
2022/10/16 03:33:12;;;;;;;17.27;11.20;;;15.70;99.90;;;;;;5007877;28;20195;-72
2022/10/16 03:35:40;;;;;;;19.13;10.90;;;15.70;99.90;;;;;;5007683;28;20195;-72
2022/10/16 03:38:07;;;;;;;11.03;7.47;;;15.70;99.90;;;;;;5006117;28;20199;-72
2022/10/16 03:40:34;;;;;;;16.53;9.47;;;15.70;99.90;;;;;;5008842;28;20279;-72
2022/10/16 03:43:01;;;;;;;13.73;9.60;;;15.70;99.90;;;;;;5005125;28;20191;-72
2022/10/16 03:45:29;;;;;;;14.83;9.53;;;15.70;99.90;;;;;;5006223;28;20199;-72
2022/10/16 03:47:56;;;;;;;15.27;10.17;;;15.70;99.90;;;;;;5005767;28;20222;-73
2022/10/16 03:50:23;;;;;;;12.37;9.30;;;15.70;99.90;;;;;;5013103;28;20265;-73
2022/10/16 03:52:51;;;;;;;15.57;10.37;;;15.70;99.90;;;;;;5011276;28;20205;-73
2022/10/16 03:55:18;;;;;;;17.00;11.87;;;15.70;99.90;;;;;;5010003;28;20199;-73
2022/10/16 03:57:45;;;;;;;21.50;12.17;;;15.70;99.90;;;;;;5011349;28;20200;-73
2022/10/16 04:00:13;;;;;;;17.60;11.83;;;15.70;99.90;;;;;;5013208;28;20211;-74
2022/10/16 04:02:41;;;;;;;21.70;11.23;;;15.70;99.90;;;;;;5008763;28;20240;-73
2022/10/16 04:05:08;;;;;;;16.00;9.90;;;15.70;99.90;;;;;;5010854;28;20192;-73
2022/10/16 04:07:36;;;;;;;14.67;10.20;;;15.70;99.90;;;;;;5011908;28;20211;-72
2022/10/16 04:10:05;;;;;;;13.50;9.70;;;15.70;99.90;;;;;;5010971;28;20207;-73
2022/10/16 04:12:32;;;;;;;13.97;10.00;;;15.70;99.90;;;;;;5009584;28;20195;-72
2022/10/16 04:14:59;;;;;;;14.33;8.93;;;15.70;99.90;;;;;;5013582;28;20668;-73
2022/10/16 04:17:26;;;;;;;13.03;8.90;;;15.70;99.90;;;;;;5007926;28;20207;-73
2022/10/16 04:19:54;;;;;;;11.50;8.67;;;15.70;99.90;;;;;;5010888;28;20649;-73
2022/10/16 04:22:21;;;;;;;12.40;8.27;;;15.70;99.90;;;;;;5010518;28;20249;-73
2022/10/16 04:24:48;;;;;;;9.10;7.10;;;15.70;99.90;;;;;;5012901;28;20279;-73
2022/10/16 04:27:16;;;;;;;10.00;8.17;;;15.80;99.90;;;;;;5011801;28;20392;-73
2022/10/16 04:29:44;;;;;;;12.07;8.90;;;15.80;99.90;;;;;;5011464;28;20635;-73
2022/10/16 04:32:11;;;;;;;11.40;8.33;;;15.80;99.90;;;;;;5010460;28;20552;-72
2022/10/16 04:34:40;;;;;;;11.23;8.60;;;15.80;99.90;;;;;;5010155;28;20201;-72
2022/10/16 04:37:07;;;;;;;13.57;9.90;;;15.90;99.90;;;;;;5009260;28;20204;-72
2022/10/16 04:39:34;;;;;;;15.60;10.57;;;15.90;99.90;;;;;;5010982;28;20195;-72
2022/10/16 04:42:02;;;;;;;15.30;10.00;;;15.90;99.90;;;;;;5008426;28;20196;-73
2022/10/16 04:44:31;;;;;;;12.27;9.07;;;15.90;99.90;;;;;;5011345;28;20210;-72
2022/10/16 04:46:58;;;;;;;10.17;7.60;;;15.90;99.90;;;;;;5010723;28;20195;-72
2022/10/16 04:49:25;;;;;;;14.37;9.70;;;15.90;99.90;;;;;;5009760;28;20203;-72
2022/10/16 04:51:52;;;;;;;13.67;9.80;;;15.90;99.90;;;;;;5009588;28;20211;-72
2022/10/16 04:54:19;;;;;;;12.37;8.90;;;15.90;99.90;;;;;;5006311;28;20203;-72
2022/10/16 04:56:47;;;;;;;11.47;8.07;;;15.90;99.90;;;;;;5010006;28;20658;-72
2022/10/16 04:59:15;;;;;;;12.03;8.47;;;15.90;99.90;;;;;;5009928;28;20212;-72
2022/10/16 05:01:44;;;;;;;11.00;8.17;;;15.90;99.90;;;;;;5009394;28;20210;-73
2022/10/16 05:04:11;;;;;;;11.13;7.77;;;16.00;99.90;;;;;;5011068;28;20734;-72
2022/10/16 05:06:39;;;;;;;10.37;6.93;;;16.00;99.90;;;;;;5009766;28;20212;-73
2022/10/16 05:09:06;;;;;;;7.20;6.07;;;16.00;99.90;;;;;;5008995;28;20675;-73
2022/10/16 05:11:33;;;;;;;10.87;6.83;;;16.00;99.90;;;;;;5008111;28;20665;-73
2022/10/16 05:14:01;;;;;;;11.43;8.03;;;16.00;99.90;;;;;;5010990;28;20220;-73
2022/10/16 05:16:28;;;;;;;14.37;9.50;;;16.00;99.90;;;;;;5007923;28;20207;-73
2022/10/16 05:18:57;;;;;;;14.90;9.47;;;16.00;99.90;;;;;;5007850;28;20197;-73
2022/10/16 05:21:24;;;;;;;10.63;7.70;;;16.00;99.90;;;;;;5009413;28;20188;-72
2022/10/16 05:23:51;;;;;;;14.07;9.37;;;16.00;99.90;;;;;;5009901;28;20241;-73
2022/10/16 05:26:18;;;;;;;15.93;10.50;;;16.00;99.90;;;;;;5006664;28;20201;-73
2022/10/16 05:28:45;;;;;;;16.97;10.43;;;16.00;99.90;;;;;;5009654;28;20196;-73
2022/10/16 05:31:13;;;;;;;14.13;9.70;;;16.00;99.90;;;;;;5011259;28;20227;-73
2022/10/16 05:33:40;;;;;;;19.70;11.20;;;16.00;99.90;;;;;;5010683;28;20190;-73
2022/10/16 05:36:10;;;;;;;18.90;12.20;;;16.00;99.90;;;;;;5013566;28;20559;-73
2022/10/16 05:38:38;;;;;;;15.37;10.93;;;16.00;99.90;;;;;;5009955;28;20685;-72
2022/10/16 05:41:05;;;;;;;22.40;13.30;;;16.00;99.90;;;;;;5010596;28;20682;-73
2022/10/16 05:43:33;;;;;;;24.83;14.33;;;16.00;99.90;;;;;;5006539;28;20204;-72
2022/10/16 05:46:02;;;;;;;21.83;13.93;;;16.00;99.90;;;;;;5010640;28;20200;-72
2022/10/16 05:48:29;;;;;;;20.87;13.67;;;16.00;99.90;;;;;;5008005;28;20203;-73
2022/10/16 05:51:00;;;;;;;21.57;14.03;;;16.00;99.90;;;;;;5010975;28;20228;-73
2022/10/16 05:53:31;;;;;;;24.97;15.27;;;16.00;99.90;;;;;;5005655;28;20204;-73
2022/10/16 05:55:58;;;;;;;17.70;11.93;;;16.00;99.90;;;;;;5010278;28;20667;-73
2022/10/16 05:58:26;;;;;;;18.47;11.13;;;16.00;99.90;;;;;;5007061;28;20197;-71
2022/10/16 06:00:55;;;;;;;14.70;10.23;;;16.00;99.90;;;;;;5009344;28;20310;-72
2022/10/16 06:03:22;;;;;;;17.67;12.03;;;16.00;99.90;;;;;;5007041;28;20322;-71
2022/10/16 06:05:49;;;;;;;28.60;14.00;;;16.00;99.90;;;;;;5009228;28;20633;-72
2022/10/16 06:08:17;;;;;;;20.93;13.40;;;16.00;99.90;;;;;;5016078;28;20203;-72
2022/10/16 06:10:46;;;;;;;20.43;12.13;;;16.00;99.90;;;;;;5020805;28;20234;-72
2022/10/16 06:13:14;;;;;;;25.07;15.73;;;16.00;99.90;;;;;;5013579;28;20224;-72
2022/10/16 06:15:42;;;;;;;24.67;16.00;;;16.00;99.90;;;;;;5008200;28;20218;-72
2022/10/16 06:18:10;;;;;;;20.40;13.63;;;16.00;99.90;;;;;;5008782;28;20250;-72
2022/10/16 06:20:37;;;;;;;19.97;13.47;;;16.00;99.90;;;;;;5007888;28;20229;-72
2022/10/16 06:23:05;;;;;;;18.13;10.70;;;16.10;99.90;;;;;;5004914;28;20249;-73
2022/10/16 06:25:32;;;;;;;17.83;12.80;;;16.10;99.90;;;;;;5007529;28;20307;-73
2022/10/16 06:28:00;;;;;;;21.00;13.63;;;16.10;99.90;;;;;;5009731;28;20210;-73
2022/10/16 06:30:28;;;;;;;14.43;10.87;;;16.10;99.90;;;;;;5004813;28;20675;-73
2022/10/16 06:32:55;;;;;;;23.83;15.07;;;16.10;99.90;;;;;;5007527;28;20215;-72
2022/10/16 06:35:22;;;;;;;18.33;12.70;;;16.10;99.90;;;;;;5024774;28;20225;-72
2022/10/16 06:37:49;;;;;;;15.97;11.60;;;16.10;99.90;;;;;;5006253;28;20227;-72
2022/10/16 06:40:16;;;;;;;18.23;11.77;;;16.10;99.90;;;;;;5009284;28;20664;-72
2022/10/16 06:42:43;;;;;;;17.27;10.80;;;16.10;99.90;;;;;;5005770;28;20197;-72
2022/10/16 06:45:12;;;;;;;16.07;10.40;;;16.10;99.90;;;;;;5007597;28;20208;-72
2022/10/16 06:47:39;;;;;;;23.27;14.87;;;16.20;99.90;;;;;;5006196;28;20302;-72
2022/10/16 06:50:07;;;;;;;23.73;15.33;;;16.20;99.90;;;;;;5009116;28;20868;-73
2022/10/16 06:52:35;;;;;;;27.10;16.10;;;16.20;99.90;;;;;;5005836;28;20605;-72
2022/10/16 06:55:02;;;;;;;24.73;16.20;;;16.20;99.90;;;;;;5007255;28;20695;-72
2022/10/16 06:57:29;;;;;;;26.73;15.70;;;16.20;99.90;;;;;;5009896;28;20187;-72
2022/10/16 06:59:57;;;;;;;23.93;16.30;;;16.10;99.90;;;;;;5008873;28;20215;-72
2022/10/16 07:02:25;;;;;;;26.90;16.70;;;16.10;99.90;;;;;;5005893;28;20235;-72
2022/10/16 07:04:53;;;;;;;24.47;15.70;;;16.10;99.90;;;;;;5009237;28;20207;-72
2022/10/16 07:07:20;;;;;;;26.97;17.40;;;16.10;99.90;;;;;;5008560;28;20204;-73
2022/10/16 07:09:47;;;;;;;26.57;16.93;;;16.10;99.90;;;;;;5008899;28;20204;-72
2022/10/16 07:12:14;;;;;;;28.83;17.33;;;16.10;99.90;;;;;;5003497;28;20296;-72
2022/10/16 07:14:41;;;;;;;28.53;16.70;;;16.10;99.90;;;;;;5009272;28;20214;-72
2022/10/16 07:17:09;;;;;;;33.97;19.33;;;16.10;99.90;;;;;;5007600;28;20665;-72
2022/10/16 07:19:37;;;;;;;30.47;18.53;;;16.10;99.90;;;;;;5005099;28;20224;-72
2022/10/16 07:22:04;;;;;;;45.63;25.00;;;16.10;99.90;;;;;;5005507;28;20191;-72
2022/10/16 07:24:32;;;;;;;35.77;21.60;;;16.10;99.90;;;;;;5009415;28;20280;-72
2022/10/16 07:26:59;;;;;;;33.47;19.50;;;16.10;99.90;;;;;;5007977;28;20202;-72
2022/10/16 07:29:26;;;;;;;29.63;18.07;;;16.10;99.90;;;;;;5007783;28;20289;-72
2022/10/16 07:31:53;;;;;;;29.20;17.27;;;16.10;99.90;;;;;;5004902;28;20244;-72
2022/10/16 07:34:22;;;;;;;19.37;13.17;;;16.10;99.90;;;;;;5007715;28;20192;-72
2022/10/16 07:36:51;;;;;;;21.77;14.70;;;16.10;99.90;;;;;;5008312;28;20258;-72
2022/10/16 07:39:18;;;;;;;22.17;14.13;;;16.20;99.90;;;;;;5006556;28;20192;-72
2022/10/16 07:41:46;;;;;;;21.90;14.93;;;16.20;99.90;;;;;;5007091;28;20258;-73
2022/10/16 07:44:13;;;;;;;22.70;14.57;;;16.20;99.90;;;;;;5008451;28;20736;-72
2022/10/16 07:46:40;;;;;;;29.50;16.70;;;16.20;99.90;;;;;;5002492;28;20210;-73
2022/10/16 07:49:07;;;;;;;25.10;16.03;;;16.20;99.90;;;;;;5004603;28;20207;-72
2022/10/16 07:51:35;;;;;;;21.90;14.20;;;16.30;99.90;;;;;;5004225;28;20767;-72
2022/10/16 07:54:03;;;;;;;23.23;15.17;;;16.30;99.90;;;;;;5009089;28;20290;-72
2022/10/16 07:56:32;;;;;;;25.10;15.23;;;16.30;99.90;;;;;;5002542;28;20193;-73
2022/10/16 07:59:00;;;;;;;26.03;15.63;;;16.30;99.90;;;;;;5002879;28;20747;-72
2022/10/16 08:01:27;;;;;;;24.97;16.27;;;16.30;99.90;;;;;;5004949;28;20747;-72
2022/10/16 08:03:54;;;;;;;24.17;14.83;;;16.30;99.90;;;;;;5001734;28;20232;-72
2022/10/16 08:06:23;;;;;;;25.10;16.33;;;16.30;99.90;;;;;;5005525;28;20204;-73
2022/10/16 08:08:50;;;;;;;28.73;16.27;;;16.30;99.90;;;;;;5007288;28;20198;-71
2022/10/16 08:11:19;;;;;;;18.17;12.43;;;16.30;99.90;;;;;;5008641;28;20236;-71
2022/10/16 08:13:46;;;;;;;16.10;11.27;;;16.40;99.90;;;;;;5001347;28;20216;-71
2022/10/16 08:16:13;;;;;;;13.90;9.87;;;16.40;99.90;;;;;;5005448;28;20243;-71
2022/10/16 08:18:41;;;;;;;12.73;9.53;;;16.40;99.90;;;;;;5005656;28;20229;-72
2022/10/16 08:21:14;;;;;;;12.23;8.57;;;16.50;99.90;;;;;;5007911;28;20559;-72
2022/10/16 08:23:41;;;;;;;10.13;8.23;;;16.40;99.90;;;;;;5005390;28;20200;-70
2022/10/16 08:26:09;;;;;;;18.27;12.47;;;16.50;99.90;;;;;;5006093;28;20216;-71
2022/10/16 08:28:38;;;;;;;17.60;12.37;;;16.50;99.90;;;;;;5004165;28;20204;-72
2022/10/16 08:31:08;;;;;;;18.93;12.80;;;16.50;99.90;;;;;;5004130;28;20244;-72
2022/10/16 08:33:35;;;;;;;16.23;11.67;;;16.50;99.90;;;;;;5006260;28;20199;-72
2022/10/16 08:36:03;;;;;;;18.33;12.33;;;16.50;99.90;;;;;;5007683;28;20319;-71
2022/10/16 08:38:31;;;;;;;25.40;14.10;;;16.60;99.90;;;;;;5008907;28;20206;-72
2022/10/16 08:41:14;;;;;;;16.50;11.33;;;16.60;99.90;;;;;;5010645;28;20206;-72
2022/10/16 08:43:59;;;;;;;14.13;9.77;;;16.60;99.90;;;;;;5008676;28;20193;-71
2022/10/16 08:46:42;;;;;;;13.23;9.47;;;16.60;99.90;;;;;;5009715;28;20243;-72
2022/10/16 08:49:13;;;;;;;14.67;10.87;;;16.60;99.90;;;;;;5007990;28;20224;-72
2022/10/16 08:51:41;;;;;;;12.90;9.67;;;16.60;99.90;;;;;;5008988;28;20210;-72
2022/10/16 08:54:27;;;;;;;25.73;15.97;;;16.60;99.90;;;;;;5009805;28;20207;-72
2022/10/16 08:56:55;;;;;;;17.60;12.97;;;16.70;99.90;;;;;;5008130;28;20280;-72
2022/10/16 08:59:24;;;;;;;17.33;10.75;;;16.70;99.90;;;;;;5008279;28;20193;-72
2022/10/16 09:01:52;;;;;;;12.57;8.48;;;16.70;99.90;;;;;;5007764;28;20190;-72
2022/10/16 09:04:50;;;;;;;18.13;12.30;;;16.70;99.90;;;;;;5009521;28;20243;-72
2022/10/16 09:07:26;;;;;;;12.10;9.43;;;16.80;99.90;;;;;;5007084;28;20208;-73
2022/10/16 09:10:04;;;;;;;11.87;8.67;;;16.80;99.90;;;;;;5010045;28;20202;-73
2022/10/16 09:12:42;;;;;;;10.80;8.20;;;16.80;99.90;;;;;;5009970;28;20694;-73
2022/10/16 09:15:24;;;;;;;12.10;8.93;;;16.80;99.90;;;;;;5010119;28;20665;-74
2022/10/16 09:17:59;;;;;;;10.90;8.07;;;16.90;99.90;;;;;;5007077;28;20215;-73
2022/10/16 09:20:44;;;;;;;12.37;8.77;;;16.90;99.90;;;;;;5010592;28;20204;-74
2022/10/16 09:23:18;;;;;;;19.15;12.90;;;16.90;99.90;;;;;;5005729;28;20197;-72
2022/10/16 09:25:48;;;;;;;17.45;11.70;;;17.00;99.90;;;;;;5009347;28;20221;-72
2022/10/16 09:28:17;;;;;;;19.98;13.05;;;16.90;99.90;;;;;;5007877;28;20194;-73
2022/10/16 09:30:48;;;;;;;19.30;12.70;;;17.00;99.90;;;;;;5010611;28;20233;-73
2022/10/16 09:33:17;;;;;;;21.83;13.15;;;17.00;99.90;;;;;;5009881;28;20201;-73
2022/10/16 09:35:46;;;;;;;14.23;9.70;;;17.00;99.90;;;;;;5008313;28;20207;-72
2022/10/16 09:38:23;;;;;;;12.03;8.93;;;17.00;99.90;;;;;;5005099;28;20286;-73
2022/10/16 09:40:51;;;;;;;17.30;11.80;;;17.00;99.90;;;;;;5010488;28;20194;-73
2022/10/16 09:43:24;;;;;;;19.25;11.52;;;17.10;99.90;;;;;;5009341;28;20296;-73
2022/10/16 09:45:57;;;;;;;12.30;9.63;;;17.10;99.90;;;;;;5007859;28;20202;-73
2022/10/16 09:48:27;;;;;;;11.65;8.70;;;17.00;99.90;;;;;;5007165;28;20210;-73
2022/10/16 09:50:59;;;;;;;12.27;8.60;;;17.10;99.90;;;;;;5018405;28;20202;-73
2022/10/16 09:53:38;;;;;;;14.77;9.90;;;17.10;99.90;;;;;;5015350;28;20209;-73
2022/10/16 09:56:06;;;;;;;17.55;11.25;;;17.10;99.90;;;;;;5010190;28;20206;-72
2022/10/16 09:58:34;;;;;;;12.63;9.10;;;17.10;99.90;;;;;;5008494;28;20201;-73
2022/10/16 10:01:02;;;;;;;10.10;7.77;;;17.10;99.90;;;;;;5008241;28;20224;-73
2022/10/16 10:03:37;;;;;;;11.82;8.15;;;17.10;99.90;;;;;;5005298;28;20227;-73
2022/10/16 10:06:17;;;;;;;10.93;7.25;;;17.10;99.90;;;;;;5008362;28;20206;-72
2022/10/16 10:08:58;;;;;;;7.15;6.20;;;17.10;99.90;;;;;;5008592;28;20211;-73
2022/10/16 10:11:52;;;;;;;8.17;6.30;;;17.10;99.90;;;;;;5006508;28;20289;-73
2022/10/16 10:14:22;;;;;;;13.67;9.40;;;17.10;99.90;;;;;;5008073;28;20624;-73
2022/10/16 10:16:52;;;;;;;9.88;7.90;;;17.10;99.90;;;;;;5007507;28;20546;-73
2022/10/16 10:19:20;;;;;;;24.88;10.75;;;17.20;99.90;;;;;;5009220;28;20203;-73
2022/10/16 10:21:48;;;;;;;18.38;10.10;;;17.20;99.90;;;;;;5005799;28;20206;-73
2022/10/16 10:24:18;;;;;;;17.10;10.02;;;17.20;99.90;;;;;;5006698;28;20667;-73
2022/10/16 10:26:56;;;;;;;10.35;7.38;;;17.20;99.90;;;;;;5006723;28;20203;-73
2022/10/16 10:29:45;;;;;;;12.02;8.88;;;17.20;99.90;;;;;;5006220;28;20822;-72
2022/10/16 10:32:26;;;;;;;13.95;8.45;;;17.20;99.90;;;;;;5007056;28;20210;-73
2022/10/16 10:35:14;;;;;;;8.35;6.60;;;17.20;99.90;;;;;;5010100;28;20983;-72
2022/10/16 10:38:09;;;;;;;9.40;7.07;;;17.30;99.90;;;;;;5006029;28;20202;-72
2022/10/16 10:41:02;;;;;;;10.40;6.88;;;17.20;99.90;;;;;;5007805;28;20733;-72
2022/10/16 10:43:44;;;;;;;13.23;9.13;;;16.20;99.90;;;;;;5006740;28;20192;-71
2022/10/16 10:46:19;;;;;;;11.20;8.15;;;17.30;99.90;;;;;;5012179;28;20191;-73
2022/10/16 10:49:15;;;;;;;11.18;7.82;;;17.20;99.90;;;;;;5008072;28;20229;-72
2022/10/16 10:51:51;;;;;;;12.35;8.55;;;17.30;99.90;;;;;;4990810;28;20223;-73
2022/10/16 10:54:27;;;;;;;11.73;8.13;;;17.30;99.90;;;;;;5006029;28;20256;-72
2022/10/16 10:57:02;;;;;;;7.77;6.77;;;17.30;99.90;;;;;;5009000;28;20365;-72
2022/10/16 10:59:49;;;;;;;10.32;7.32;;;17.40;99.90;;;;;;5006902;28;20198;-73
2022/10/16 11:02:27;;;;;;;9.80;7.05;;;17.40;99.90;;;;;;5006445;28;20683;-72
2022/10/16 11:05:23;;;;;;;30.52;12.88;;;17.40;99.90;;;;;;5006960;28;20213;-72
2022/10/16 11:07:55;;;;;;;15.45;9.00;;;17.40;99.90;;;;;;5006055;28;20187;-72
2022/10/16 11:10:25;;;;;;;15.82;9.05;;;17.40;99.90;;;;;;5007414;28;20202;-81
2022/10/16 11:12:59;;;;;;;13.40;8.48;;;17.40;99.90;;;;;;5004217;28;20573;-77
2022/10/16 11:15:32;;;;;;;13.73;8.85;;;17.50;99.90;;;;;;5007559;28;20199;-79
2022/10/16 11:18:06;;;;;;;8.27;6.47;;;17.50;99.90;;;;;;5004017;28;20620;-75
2022/10/16 11:20:39;;;;;;;6.45;5.63;;;17.50;99.90;;;;;;5010143;28;20225;-77
2022/10/16 11:23:14;;;;;;;16.50;6.30;;;17.60;99.90;;;;;;5008359;28;20188;-76
2022/10/16 11:25:42;;;;;;;11.00;8.30;;;17.70;99.90;;;;;;5010017;28;20197;-75
2022/10/16 11:28:14;;;;;;;10.63;7.93;;;17.70;99.90;;;;;;5003280;28;20379;-81
2022/10/16 11:30:45;;;;;;;9.60;7.35;;;17.70;99.90;;;;;;5008567;28;20261;-76
2022/10/16 11:33:27;;;;;;;9.60;7.18;;;17.70;99.90;;;;;;5005704;28;20219;-81
2022/10/16 11:36:02;;;;;;;8.23;6.25;;;17.80;99.90;;;;;;5003998;28;20191;-81
2022/10/16 11:38:36;;;;;;;9.63;7.78;;;17.80;99.90;;;;;;5007555;28;20668;-81
2022/10/16 11:41:11;;;;;;;9.35;7.05;;;17.80;99.90;;;;;;5005717;28;20196;-82
2022/10/16 11:47:27;;;;;;;6.82;5.93;;;18.00;99.90;;;;;;4936274;29;20248;-82
2022/10/16 11:50:01;;;;;;;12.23;8.60;;;17.80;99.90;;;;;;4920224;29;20770;-80
2022/10/16 11:53:17;;;;;;;10.77;7.30;;;17.60;99.90;;;;;;4938194;29;20219;-83
2022/10/16 11:56:35;;;;;;;6.05;5.45;;;17.70;99.90;;;;;;4936453;29;20324;-81
2022/10/16 12:02:49;;;;;;;5.90;5.30;;;18.00;99.90;;;;;;4934758;29;20284;-79
2022/10/16 12:06:25;;;;;;;;;;;;;;;;;;;;;
2022/10/16 12:09:23;;;;;;;5.60;5.10;;;18.20;99.90;;;;;;4938743;28;20733;-80
2022/10/16 12:11:51;;;;;;;5.90;5.30;;;17.90;99.90;;;;;;4940784;29;20566;-78
2022/10/16 12:14:35;;;;;;;5.35;4.85;;;17.90;99.90;;;;;;4939792;29;20671;-81
2022/10/16 12:17:06;;;;;;;6.35;4.78;;;18.00;99.90;;;;;;4936384;29;20261;-82
2022/10/16 12:19:34;;;;;;;5.72;5.13;;;18.00;99.90;;;;;;4944459;29;20699;-82
2022/10/16 12:22:05;;;;;;;6.97;5.90;;;18.00;99.90;;;;;;4941582;29;20209;-81
2022/10/16 12:24:40;;;;;;;8.68;6.70;;;18.10;99.90;;;;;;5003479;28;20215;-81
2022/10/16 12:27:25;;;;;;;6.57;5.80;;;18.20;99.90;;;;;;5009461;28;20217;-81
2022/10/16 12:29:56;;;;;;;5.65;5.13;;;18.30;99.90;;;;;;5008993;28;20207;-80
2022/10/16 12:32:30;;;;;;;8.93;7.13;;;18.30;99.90;;;;;;5006275;28;20261;-83
2022/10/16 12:34:58;;;;;;;9.27;6.80;;;18.30;99.90;;;;;;5008149;28;20278;-83
2022/10/16 12:37:30;;;;;;;7.78;6.80;;;18.40;99.90;;;;;;5011839;28;20278;-83
2022/10/16 12:40:00;;;;;;;5.95;5.32;;;18.40;99.90;;;;;;5011930;28;20203;-85
2022/10/16 12:42:35;;;;;;;5.95;5.00;;;18.50;99.90;;;;;;5011343;28;20735;-87
2022/10/16 12:45:38;;;;;;;7.90;6.03;;;18.50;99.90;;;;;;5009308;28;20195;-85
2022/10/16 12:48:22;;;;;;;5.93;5.28;;;18.60;99.90;;;;;;5008115;28;20845;-78
2022/10/16 12:51:12;;;;;;;4.90;4.50;;;18.60;99.90;;;;;;5007457;28;20230;-82
2022/10/16 12:53:39;;;;;;;5.05;4.55;;;18.60;99.90;;;;;;5008103;28;20217;-82
2022/10/16 12:56:18;;;;;;;4.53;4.15;;;18.70;99.90;;;;;;5008279;28;20204;-86
2022/10/16 12:59:03;;;;;;;4.80;4.40;;;18.80;99.90;;;;;;5008481;28;20287;-82
2022/10/16 13:01:43;;;;;;;4.93;4.47;;;18.90;99.90;;;;;;5005352;28;20215;-79